sensor_id;sensor_type;location;lat;lon;timestamp;P1;durP1;ratioP1;P2;durP2;ratioP2
13445;SDS011;6795;51.232;3.764;2022-09-09T00:00:13;8.60;;;2.25;;
13445;SDS011;6795;51.232;3.764;2022-09-09T00:02:44;6.57;;;2.05;;
13445;SDS011;6795;51.232;3.764;2022-09-09T00:05:23;6.10;;;2.40;;
13445;SDS011;6795;51.232;3.764;2022-09-09T00:08:01;7.95;;;2.75;;
13445;SDS011;6795;51.232;3.764;2022-09-09T00:10:32;4.55;;;2.53;;
13445;SDS011;6795;51.232;3.764;2022-09-09T00:13:09;3.80;;;2.38;;
13445;SDS011;6795;51.232;3.764;2022-09-09T00:15:45;5.38;;;2.13;;
13445;SDS011;6795;51.232;3.764;2022-09-09T00:18:22;5.20;;;2.67;;
13445;SDS011;6795;51.232;3.764;2022-09-09T00:20:57;6.82;;;2.45;;
13445;SDS011;6795;51.232;3.764;2022-09-09T00:23:30;5.57;;;1.77;;
13445;SDS011;6795;51.232;3.764;2022-09-09T00:26:04;2.90;;;2.13;;
13445;SDS011;6795;51.232;3.764;2022-09-09T00:28:41;6.78;;;1.95;;
13445;SDS011;6795;51.232;3.764;2022-09-09T00:31:14;4.75;;;2.38;;
13445;SDS011;6795;51.232;3.764;2022-09-09T00:33:47;4.57;;;1.70;;
13445;SDS011;6795;51.232;3.764;2022-09-09T00:36:20;6.10;;;1.85;;
13445;SDS011;6795;51.232;3.764;2022-09-09T00:38:55;6.55;;;2.45;;
13445;SDS011;6795;51.232;3.764;2022-09-09T00:41:26;7.35;;;1.80;;
13445;SDS011;6795;51.232;3.764;2022-09-09T00:44:12;6.53;;;1.30;;
13445;SDS011;6795;51.232;3.764;2022-09-09T00:46:56;6.65;;;1.80;;
13445;SDS011;6795;51.232;3.764;2022-09-09T00:49:37;3.33;;;1.60;;
13445;SDS011;6795;51.232;3.764;2022-09-09T00:52:17;4.35;;;1.33;;
13445;SDS011;6795;51.232;3.764;2022-09-09T00:54:56;7.20;;;1.85;;
13445;SDS011;6795;51.232;3.764;2022-09-09T00:57:32;3.50;;;2.03;;
13445;SDS011;6795;51.232;3.764;2022-09-09T01:00:16;5.85;;;2.28;;
13445;SDS011;6795;51.232;3.764;2022-09-09T01:02:50;4.20;;;1.55;;
13445;SDS011;6795;51.232;3.764;2022-09-09T01:05:27;4.93;;;1.38;;
13445;SDS011;6795;51.232;3.764;2022-09-09T01:08:03;5.35;;;1.90;;
13445;SDS011;6795;51.232;3.764;2022-09-09T01:10:41;3.72;;;1.52;;
13445;SDS011;6795;51.232;3.764;2022-09-09T01:13:19;5.18;;;1.60;;
13445;SDS011;6795;51.232;3.764;2022-09-09T01:15:51;6.82;;;1.98;;
13445;SDS011;6795;51.232;3.764;2022-09-09T01:18:27;6.75;;;1.33;;
13445;SDS011;6795;51.232;3.764;2022-09-09T01:21:01;3.35;;;1.20;;
13445;SDS011;6795;51.232;3.764;2022-09-09T01:23:44;5.25;;;1.23;;
13445;SDS011;6795;51.232;3.764;2022-09-09T01:26:29;3.50;;;1.25;;
13445;SDS011;6795;51.232;3.764;2022-09-09T01:29:00;6.63;;;1.85;;
13445;SDS011;6795;51.232;3.764;2022-09-09T01:31:31;4.10;;;1.02;;
13445;SDS011;6795;51.232;3.764;2022-09-09T01:34:09;2.20;;;1.17;;
13445;SDS011;6795;51.232;3.764;2022-09-09T01:36:40;4.38;;;1.20;;
13445;SDS011;6795;51.232;3.764;2022-09-09T01:39:11;7.68;;;1.20;;
13445;SDS011;6795;51.232;3.764;2022-09-09T01:41:41;5.43;;;1.23;;
13445;SDS011;6795;51.232;3.764;2022-09-09T01:44:10;1.95;;;0.82;;
13445;SDS011;6795;51.232;3.764;2022-09-09T01:46:39;6.07;;;1.58;;
13445;SDS011;6795;51.232;3.764;2022-09-09T01:49:07;2.80;;;1.00;;
13445;SDS011;6795;51.232;3.764;2022-09-09T01:51:36;6.43;;;1.38;;
13445;SDS011;6795;51.232;3.764;2022-09-09T01:54:06;4.63;;;1.30;;
13445;SDS011;6795;51.232;3.764;2022-09-09T01:56:38;8.23;;;1.73;;
13445;SDS011;6795;51.232;3.764;2022-09-09T01:59:17;3.58;;;1.38;;
13445;SDS011;6795;51.232;3.764;2022-09-09T02:01:57;2.75;;;1.77;;
13445;SDS011;6795;51.232;3.764;2022-09-09T02:04:37;3.80;;;1.55;;
13445;SDS011;6795;51.232;3.764;2022-09-09T02:07:11;2.35;;;1.55;;
13445;SDS011;6795;51.232;3.764;2022-09-09T02:09:49;6.80;;;1.83;;
13445;SDS011;6795;51.232;3.764;2022-09-09T02:12:26;3.42;;;1.38;;
13445;SDS011;6795;51.232;3.764;2022-09-09T02:14:59;6.28;;;1.42;;
13445;SDS011;6795;51.232;3.764;2022-09-09T02:17:33;3.00;;;1.30;;
13445;SDS011;6795;51.232;3.764;2022-09-09T02:20:06;4.95;;;1.63;;
13445;SDS011;6795;51.232;3.764;2022-09-09T02:22:39;5.70;;;1.20;;
13445;SDS011;6795;51.232;3.764;2022-09-09T02:25:10;6.53;;;1.98;;
13445;SDS011;6795;51.232;3.764;2022-09-09T02:27:43;9.52;;;1.52;;
13445;SDS011;6795;51.232;3.764;2022-09-09T02:30:15;6.97;;;1.58;;
13445;SDS011;6795;51.232;3.764;2022-09-09T02:32:44;5.15;;;1.80;;
13445;SDS011;6795;51.232;3.764;2022-09-09T02:35:14;6.97;;;2.00;;
13445;SDS011;6795;51.232;3.764;2022-09-09T02:37:45;6.80;;;2.05;;
13445;SDS011;6795;51.232;3.764;2022-09-09T02:40:13;9.48;;;2.40;;
13445;SDS011;6795;51.232;3.764;2022-09-09T02:42:45;2.80;;;1.45;;
13445;SDS011;6795;51.232;3.764;2022-09-09T02:45:16;6.53;;;2.10;;
13445;SDS011;6795;51.232;3.764;2022-09-09T02:47:48;6.82;;;1.95;;
13445;SDS011;6795;51.232;3.764;2022-09-09T02:50:23;9.95;;;2.33;;
13445;SDS011;6795;51.232;3.764;2022-09-09T02:53:02;6.90;;;2.15;;
13445;SDS011;6795;51.232;3.764;2022-09-09T02:55:40;4.32;;;1.77;;
13445;SDS011;6795;51.232;3.764;2022-09-09T02:58:15;6.45;;;2.08;;
13445;SDS011;6795;51.232;3.764;2022-09-09T03:00:45;8.23;;;2.15;;
13445;SDS011;6795;51.232;3.764;2022-09-09T03:03:15;3.90;;;1.30;;
13445;SDS011;6795;51.232;3.764;2022-09-09T03:05:44;3.22;;;0.93;;
13445;SDS011;6795;51.232;3.764;2022-09-09T03:08:13;4.13;;;1.25;;
13445;SDS011;6795;51.232;3.764;2022-09-09T03:10:41;9.43;;;1.25;;
13445;SDS011;6795;51.232;3.764;2022-09-09T03:13:09;9.82;;;1.10;;
13445;SDS011;6795;51.232;3.764;2022-09-09T03:15:39;6.90;;;1.38;;
13445;SDS011;6795;51.232;3.764;2022-09-09T03:18:08;6.35;;;1.50;;
13445;SDS011;6795;51.232;3.764;2022-09-09T03:20:37;4.60;;;0.85;;
13445;SDS011;6795;51.232;3.764;2022-09-09T03:23:05;8.88;;;1.38;;
13445;SDS011;6795;51.232;3.764;2022-09-09T03:25:38;3.72;;;1.10;;
13445;SDS011;6795;51.232;3.764;2022-09-09T03:28:07;6.57;;;1.40;;
13445;SDS011;6795;51.232;3.764;2022-09-09T03:30:35;4.10;;;1.02;;
13445;SDS011;6795;51.232;3.764;2022-09-09T03:33:05;6.20;;;1.40;;
13445;SDS011;6795;51.232;3.764;2022-09-09T03:35:33;7.00;;;1.02;;
13445;SDS011;6795;51.232;3.764;2022-09-09T03:38:02;6.32;;;1.05;;
13445;SDS011;6795;51.232;3.764;2022-09-09T03:40:30;8.60;;;0.93;;
13445;SDS011;6795;51.232;3.764;2022-09-09T03:42:58;8.93;;;1.50;;
13445;SDS011;6795;51.232;3.764;2022-09-09T03:45:27;7.78;;;1.48;;
13445;SDS011;6795;51.232;3.764;2022-09-09T03:47:55;5.90;;;1.30;;
13445;SDS011;6795;51.232;3.764;2022-09-09T03:50:25;6.70;;;1.85;;
13445;SDS011;6795;51.232;3.764;2022-09-09T03:52:53;14.23;;;2.10;;
13445;SDS011;6795;51.232;3.764;2022-09-09T03:55:22;6.63;;;1.23;;
13445;SDS011;6795;51.232;3.764;2022-09-09T03:57:50;6.82;;;1.50;;
13445;SDS011;6795;51.232;3.764;2022-09-09T04:00:18;15.40;;;3.35;;
13445;SDS011;6795;51.232;3.764;2022-09-09T04:02:46;10.50;;;1.40;;
13445;SDS011;6795;51.232;3.764;2022-09-09T04:05:16;6.70;;;1.10;;
13445;SDS011;6795;51.232;3.764;2022-09-09T04:07:45;11.45;;;1.75;;
13445;SDS011;6795;51.232;3.764;2022-09-09T04:10:14;8.00;;;1.42;;
13445;SDS011;6795;51.232;3.764;2022-09-09T04:12:43;9.73;;;1.08;;
13445;SDS011;6795;51.232;3.764;2022-09-09T04:15:15;6.88;;;1.10;;
13445;SDS011;6795;51.232;3.764;2022-09-09T04:17:45;7.05;;;1.58;;
13445;SDS011;6795;51.232;3.764;2022-09-09T04:20:13;7.13;;;1.85;;
13445;SDS011;6795;51.232;3.764;2022-09-09T04:22:42;4.78;;;1.00;;
13445;SDS011;6795;51.232;3.764;2022-09-09T04:25:11;8.38;;;1.42;;
13445;SDS011;6795;51.232;3.764;2022-09-09T04:27:39;10.07;;;2.13;;
13445;SDS011;6795;51.232;3.764;2022-09-09T04:30:09;8.15;;;1.02;;
13445;SDS011;6795;51.232;3.764;2022-09-09T04:32:38;6.75;;;1.92;;
13445;SDS011;6795;51.232;3.764;2022-09-09T04:35:07;7.80;;;1.40;;
13445;SDS011;6795;51.232;3.764;2022-09-09T04:37:35;9.38;;;1.67;;
13445;SDS011;6795;51.232;3.764;2022-09-09T04:40:04;12.70;;;1.40;;
13445;SDS011;6795;51.232;3.764;2022-09-09T04:42:37;4.57;;;1.55;;
13445;SDS011;6795;51.232;3.764;2022-09-09T04:45:10;7.25;;;1.35;;
13445;SDS011;6795;51.232;3.764;2022-09-09T04:47:39;6.45;;;1.17;;
13445;SDS011;6795;51.232;3.764;2022-09-09T04:50:08;6.78;;;1.15;;
13445;SDS011;6795;51.232;3.764;2022-09-09T04:52:38;8.90;;;1.90;;
13445;SDS011;6795;51.232;3.764;2022-09-09T04:55:07;6.30;;;1.33;;
13445;SDS011;6795;51.232;3.764;2022-09-09T04:57:38;5.60;;;1.02;;
13445;SDS011;6795;51.232;3.764;2022-09-09T05:00:06;11.18;;;1.40;;
13445;SDS011;6795;51.232;3.764;2022-09-09T05:02:37;8.43;;;1.40;;
13445;SDS011;6795;51.232;3.764;2022-09-09T05:05:06;6.47;;;0.90;;
13445;SDS011;6795;51.232;3.764;2022-09-09T05:07:34;6.40;;;0.98;;
13445;SDS011;6795;51.232;3.764;2022-09-09T05:10:03;11.85;;;1.23;;
13445;SDS011;6795;51.232;3.764;2022-09-09T05:12:32;8.52;;;1.48;;
13445;SDS011;6795;51.232;3.764;2022-09-09T05:15:02;10.68;;;1.60;;
13445;SDS011;6795;51.232;3.764;2022-09-09T05:17:31;5.30;;;1.30;;
13445;SDS011;6795;51.232;3.764;2022-09-09T05:20:00;12.48;;;1.63;;
13445;SDS011;6795;51.232;3.764;2022-09-09T05:22:35;8.60;;;1.10;;
13445;SDS011;6795;51.232;3.764;2022-09-09T05:25:04;4.80;;;1.17;;
13445;SDS011;6795;51.232;3.764;2022-09-09T05:27:33;7.85;;;2.38;;
13445;SDS011;6795;51.232;3.764;2022-09-09T05:30:03;6.57;;;1.35;;
13445;SDS011;6795;51.232;3.764;2022-09-09T05:32:32;5.82;;;1.75;;
13445;SDS011;6795;51.232;3.764;2022-09-09T05:35:00;8.98;;;1.40;;
13445;SDS011;6795;51.232;3.764;2022-09-09T05:37:30;9.73;;;1.98;;
13445;SDS011;6795;51.232;3.764;2022-09-09T05:39:58;7.50;;;1.60;;
13445;SDS011;6795;51.232;3.764;2022-09-09T05:42:29;6.65;;;1.50;;
13445;SDS011;6795;51.232;3.764;2022-09-09T05:44:58;1.88;;;0.70;;
13445;SDS011;6795;51.232;3.764;2022-09-09T05:47:27;2.85;;;0.80;;
13445;SDS011;6795;51.232;3.764;2022-09-09T05:49:56;8.95;;;1.60;;
13445;SDS011;6795;51.232;3.764;2022-09-09T05:52:24;5.07;;;1.45;;
13445;SDS011;6795;51.232;3.764;2022-09-09T05:54:53;5.07;;;0.95;;
13445;SDS011;6795;51.232;3.764;2022-09-09T05:57:23;9.02;;;1.60;;
13445;SDS011;6795;51.232;3.764;2022-09-09T05:59:51;9.07;;;1.75;;
13445;SDS011;6795;51.232;3.764;2022-09-09T06:02:20;8.00;;;1.48;;
13445;SDS011;6795;51.232;3.764;2022-09-09T06:04:49;8.43;;;1.40;;
13445;SDS011;6795;51.232;3.764;2022-09-09T06:07:18;7.15;;;0.90;;
13445;SDS011;6795;51.232;3.764;2022-09-09T06:09:46;6.05;;;1.48;;
13445;SDS011;6795;51.232;3.764;2022-09-09T06:12:14;4.45;;;1.00;;
13445;SDS011;6795;51.232;3.764;2022-09-09T06:14:42;9.45;;;1.05;;
13445;SDS011;6795;51.232;3.764;2022-09-09T06:17:12;7.80;;;1.48;;
13445;SDS011;6795;51.232;3.764;2022-09-09T06:19:40;10.60;;;1.60;;
13445;SDS011;6795;51.232;3.764;2022-09-09T06:22:09;7.13;;;1.80;;
13445;SDS011;6795;51.232;3.764;2022-09-09T06:24:38;8.77;;;1.52;;
13445;SDS011;6795;51.232;3.764;2022-09-09T06:27:07;7.07;;;1.42;;
13445;SDS011;6795;51.232;3.764;2022-09-09T06:29:35;7.00;;;0.80;;
13445;SDS011;6795;51.232;3.764;2022-09-09T06:32:03;7.63;;;1.33;;
13445;SDS011;6795;51.232;3.764;2022-09-09T06:34:34;4.40;;;0.70;;
13445;SDS011;6795;51.232;3.764;2022-09-09T06:37:03;4.43;;;1.55;;
13445;SDS011;6795;51.232;3.764;2022-09-09T06:39:34;7.80;;;2.28;;
13445;SDS011;6795;51.232;3.764;2022-09-09T06:42:02;13.40;;;1.17;;
13445;SDS011;6795;51.232;3.764;2022-09-09T06:44:30;2.33;;;0.88;;
13445;SDS011;6795;51.232;3.764;2022-09-09T06:47:01;4.78;;;1.17;;
13445;SDS011;6795;51.232;3.764;2022-09-09T06:49:29;4.82;;;1.00;;
13445;SDS011;6795;51.232;3.764;2022-09-09T06:51:58;9.48;;;1.38;;
13445;SDS011;6795;51.232;3.764;2022-09-09T06:54:26;8.90;;;1.83;;
13445;SDS011;6795;51.232;3.764;2022-09-09T06:56:56;7.55;;;2.08;;
13445;SDS011;6795;51.232;3.764;2022-09-09T06:59:46;2.58;;;1.65;;
13445;SDS011;6795;51.232;3.764;2022-09-09T07:02:14;8.93;;;1.83;;
13445;SDS011;6795;51.232;3.764;2022-09-09T07:04:43;8.55;;;0.98;;
13445;SDS011;6795;51.232;3.764;2022-09-09T07:07:11;5.30;;;1.05;;
13445;SDS011;6795;51.232;3.764;2022-09-09T07:09:41;4.22;;;1.08;;
13445;SDS011;6795;51.232;3.764;2022-09-09T07:12:13;6.03;;;1.05;;
13445;SDS011;6795;51.232;3.764;2022-09-09T07:14:41;2.33;;;0.73;;
13445;SDS011;6795;51.232;3.764;2022-09-09T07:17:09;7.10;;;1.20;;
13445;SDS011;6795;51.232;3.764;2022-09-09T07:19:37;9.43;;;1.42;;
13445;SDS011;6795;51.232;3.764;2022-09-09T07:22:06;6.63;;;1.20;;
13445;SDS011;6795;51.232;3.764;2022-09-09T07:24:34;4.28;;;0.50;;
13445;SDS011;6795;51.232;3.764;2022-09-09T07:27:03;8.18;;;0.90;;
13445;SDS011;6795;51.232;3.764;2022-09-09T07:29:33;3.03;;;0.60;;
13445;SDS011;6795;51.232;3.764;2022-09-09T07:32:01;7.05;;;0.80;;
13445;SDS011;6795;51.232;3.764;2022-09-09T07:34:30;3.72;;;0.60;;
13445;SDS011;6795;51.232;3.764;2022-09-09T07:36:59;11.60;;;0.80;;
13445;SDS011;6795;51.232;3.764;2022-09-09T07:39:28;4.80;;;0.52;;
13445;SDS011;6795;51.232;3.764;2022-09-09T07:41:56;4.60;;;1.00;;
13445;SDS011;6795;51.232;3.764;2022-09-09T07:44:25;2.40;;;0.70;;
13445;SDS011;6795;51.232;3.764;2022-09-09T07:46:55;5.22;;;0.80;;
13445;SDS011;6795;51.232;3.764;2022-09-09T07:49:24;6.40;;;0.93;;
13445;SDS011;6795;51.232;3.764;2022-09-09T07:51:58;3.83;;;0.50;;
13445;SDS011;6795;51.232;3.764;2022-09-09T07:54:26;5.32;;;0.52;;
13445;SDS011;6795;51.232;3.764;2022-09-09T07:56:54;2.95;;;0.98;;
13445;SDS011;6795;51.232;3.764;2022-09-09T07:59:23;7.57;;;0.70;;
13445;SDS011;6795;51.232;3.764;2022-09-09T08:01:51;5.45;;;0.80;;
13445;SDS011;6795;51.232;3.764;2022-09-09T08:04:23;2.30;;;0.50;;
13445;SDS011;6795;51.232;3.764;2022-09-09T08:06:55;4.97;;;0.73;;
13445;SDS011;6795;51.232;3.764;2022-09-09T08:09:30;4.45;;;0.68;;
13445;SDS011;6795;51.232;3.764;2022-09-09T08:12:00;6.38;;;1.20;;
13445;SDS011;6795;51.232;3.764;2022-09-09T08:14:28;5.15;;;1.15;;
13445;SDS011;6795;51.232;3.764;2022-09-09T08:16:57;3.88;;;0.65;;
13445;SDS011;6795;51.232;3.764;2022-09-09T08:19:27;6.03;;;0.63;;
13445;SDS011;6795;51.232;3.764;2022-09-09T08:21:56;2.97;;;0.50;;
13445;SDS011;6795;51.232;3.764;2022-09-09T08:24:24;6.13;;;1.33;;
13445;SDS011;6795;51.232;3.764;2022-09-09T08:26:52;4.10;;;0.95;;
13445;SDS011;6795;51.232;3.764;2022-09-09T08:29:21;5.20;;;0.52;;
13445;SDS011;6795;51.232;3.764;2022-09-09T08:31:51;3.10;;;0.50;;
13445;SDS011;6795;51.232;3.764;2022-09-09T08:34:20;5.57;;;0.75;;
13445;SDS011;6795;51.232;3.764;2022-09-09T08:36:50;4.10;;;0.57;;
13445;SDS011;6795;51.232;3.764;2022-09-09T08:39:19;6.30;;;0.50;;
13445;SDS011;6795;51.232;3.764;2022-09-09T08:41:53;4.20;;;0.60;;
13445;SDS011;6795;51.232;3.764;2022-09-09T08:44:41;2.85;;;0.82;;
13445;SDS011;6795;51.232;3.764;2022-09-09T08:47:23;5.47;;;0.52;;
13445;SDS011;6795;51.232;3.764;2022-09-09T08:50:13;6.07;;;0.70;;
13445;SDS011;6795;51.232;3.764;2022-09-09T08:52:57;8.00;;;0.75;;
13445;SDS011;6795;51.232;3.764;2022-09-09T08:55:32;5.13;;;0.70;;
13445;SDS011;6795;51.232;3.764;2022-09-09T08:58:10;3.42;;;0.50;;
13445;SDS011;6795;51.232;3.764;2022-09-09T09:00:43;3.63;;;0.30;;
13445;SDS011;6795;51.232;3.764;2022-09-09T09:03:28;3.83;;;0.47;;
13445;SDS011;6795;51.232;3.764;2022-09-09T09:06:04;4.72;;;0.60;;
13445;SDS011;6795;51.232;3.764;2022-09-09T09:08:44;3.78;;;0.60;;
13445;SDS011;6795;51.232;3.764;2022-09-09T09:11:17;5.38;;;0.68;;
13445;SDS011;6795;51.232;3.764;2022-09-09T09:13:47;7.50;;;0.73;;
13445;SDS011;6795;51.232;3.764;2022-09-09T09:16:22;1.55;;;0.45;;
13445;SDS011;6795;51.232;3.764;2022-09-09T09:18:58;4.10;;;1.13;;
13445;SDS011;6795;51.232;3.764;2022-09-09T09:21:29;3.28;;;0.63;;
13445;SDS011;6795;51.232;3.764;2022-09-09T09:24:09;4.57;;;0.82;;
13445;SDS011;6795;51.232;3.764;2022-09-09T09:26:47;2.20;;;0.50;;
13445;SDS011;6795;51.232;3.764;2022-09-09T09:29:17;1.55;;;0.40;;
13445;SDS011;6795;51.232;3.764;2022-09-09T09:31:48;3.17;;;0.30;;
13445;SDS011;6795;51.232;3.764;2022-09-09T09:34:21;2.90;;;0.60;;
13445;SDS011;6795;51.232;3.764;2022-09-09T09:36:52;2.40;;;0.30;;
13445;SDS011;6795;51.232;3.764;2022-09-09T09:39:24;3.97;;;0.60;;
13445;SDS011;6795;51.232;3.764;2022-09-09T09:42:14;2.88;;;0.65;;
13445;SDS011;6795;51.232;3.764;2022-09-09T09:44:49;5.55;;;0.70;;
13445;SDS011;6795;51.232;3.764;2022-09-09T09:47:17;3.47;;;0.40;;
13445;SDS011;6795;51.232;3.764;2022-09-09T09:49:53;2.75;;;0.45;;
13445;SDS011;6795;51.232;3.764;2022-09-09T09:52:23;3.45;;;0.40;;
13445;SDS011;6795;51.232;3.764;2022-09-09T09:54:54;2.30;;;0.45;;
13445;SDS011;6795;51.232;3.764;2022-09-09T09:57:30;3.85;;;0.60;;
13445;SDS011;6795;51.232;3.764;2022-09-09T10:00:00;3.67;;;0.45;;
13445;SDS011;6795;51.232;3.764;2022-09-09T10:02:37;1.27;;;0.40;;
13445;SDS011;6795;51.232;3.764;2022-09-09T10:05:12;3.13;;;0.43;;
13445;SDS011;6795;51.232;3.764;2022-09-09T10:07:42;2.63;;;0.40;;
13445;SDS011;6795;51.232;3.764;2022-09-09T10:10:15;4.72;;;0.60;;
13445;SDS011;6795;51.232;3.764;2022-09-09T10:12:55;2.75;;;0.40;;
13445;SDS011;6795;51.232;3.764;2022-09-09T10:15:36;2.30;;;0.43;;
13445;SDS011;6795;51.232;3.764;2022-09-09T10:18:15;2.35;;;0.50;;
13445;SDS011;6795;51.232;3.764;2022-09-09T10:20:56;2.15;;;0.40;;
13445;SDS011;6795;51.232;3.764;2022-09-09T10:23:36;5.53;;;0.90;;
13445;SDS011;6795;51.232;3.764;2022-09-09T10:26:19;3.85;;;0.57;;
13445;SDS011;6795;51.232;3.764;2022-09-09T10:29:03;4.20;;;0.55;;
13445;SDS011;6795;51.232;3.764;2022-09-09T10:31:49;1.30;;;0.30;;
13445;SDS011;6795;51.232;3.764;2022-09-09T10:34:30;2.63;;;0.45;;
13445;SDS011;6795;51.232;3.764;2022-09-09T10:37:26;5.10;;;0.43;;
13445;SDS011;6795;51.232;3.764;2022-09-09T10:40:15;1.15;;;0.70;;
13445;SDS011;6795;51.232;3.764;2022-09-09T10:43:00;5.20;;;0.77;;
13445;SDS011;6795;51.232;3.764;2022-09-09T10:45:40;4.60;;;0.40;;
13445;SDS011;6795;51.232;3.764;2022-09-09T10:48:30;2.70;;;0.40;;
13445;SDS011;6795;51.232;3.764;2022-09-09T10:51:12;2.97;;;0.50;;
13445;SDS011;6795;51.232;3.764;2022-09-09T10:53:52;3.17;;;0.30;;
13445;SDS011;6795;51.232;3.764;2022-09-09T10:56:30;1.65;;;0.45;;
13445;SDS011;6795;51.232;3.764;2022-09-09T10:59:02;1.75;;;0.38;;
13445;SDS011;6795;51.232;3.764;2022-09-09T11:01:37;0.50;;;0.30;;
13445;SDS011;6795;51.232;3.764;2022-09-09T11:04:12;2.72;;;0.50;;
13445;SDS011;6795;51.232;3.764;2022-09-09T11:06:46;1.83;;;0.32;;
13445;SDS011;6795;51.232;3.764;2022-09-09T11:09:20;0.32;;;0.20;;
13445;SDS011;6795;51.232;3.764;2022-09-09T11:11:52;2.30;;;0.38;;
13445;SDS011;6795;51.232;3.764;2022-09-09T11:14:25;1.58;;;0.32;;
13445;SDS011;6795;51.232;3.764;2022-09-09T11:17:03;2.08;;;0.38;;
13445;SDS011;6795;51.232;3.764;2022-09-09T11:19:37;0.45;;;0.20;;
13445;SDS011;6795;51.232;3.764;2022-09-09T11:22:08;2.65;;;0.50;;
13445;SDS011;6795;51.232;3.764;2022-09-09T11:24:45;1.63;;;0.50;;
13445;SDS011;6795;51.232;3.764;2022-09-09T11:27:17;1.85;;;0.52;;
13445;SDS011;6795;51.232;3.764;2022-09-09T11:36:24;5.50;;;0.50;;
13445;SDS011;6795;51.232;3.764;2022-09-09T11:39:02;1.80;;;0.40;;
13445;SDS011;6795;51.232;3.764;2022-09-09T11:41:46;2.55;;;0.70;;
13445;SDS011;6795;51.232;3.764;2022-09-09T11:44:17;0.82;;;0.28;;
13445;SDS011;6795;51.232;3.764;2022-09-09T11:46:57;2.33;;;0.45;;
13445;SDS011;6795;51.232;3.764;2022-09-09T11:49:26;2.53;;;0.55;;
13445;SDS011;6795;51.232;3.764;2022-09-09T11:51:57;1.30;;;0.45;;
13445;SDS011;6795;51.232;3.764;2022-09-09T11:54:27;3.00;;;0.55;;
13445;SDS011;6795;51.232;3.764;2022-09-09T11:56:58;2.53;;;0.50;;
13445;SDS011;6795;51.232;3.764;2022-09-09T11:59:27;1.77;;;0.70;;
13445;SDS011;6795;51.232;3.764;2022-09-09T12:01:58;3.28;;;0.60;;
13445;SDS011;6795;51.232;3.764;2022-09-09T12:04:30;4.07;;;0.50;;
13445;SDS011;6795;51.232;3.764;2022-09-09T12:07:04;3.20;;;0.60;;
13445;SDS011;6795;51.232;3.764;2022-09-09T12:09:51;1.73;;;0.50;;
13445;SDS011;6795;51.232;3.764;2022-09-09T12:12:27;7.35;;;0.65;;
13445;SDS011;6795;51.232;3.764;2022-09-09T12:15:17;3.83;;;0.45;;
13445;SDS011;6795;51.232;3.764;2022-09-09T12:17:49;3.05;;;0.73;;
13445;SDS011;6795;51.232;3.764;2022-09-09T12:20:20;1.88;;;0.68;;
13445;SDS011;6795;51.232;3.764;2022-09-09T12:23:00;3.13;;;0.50;;
13445;SDS011;6795;51.232;3.764;2022-09-09T12:25:49;2.58;;;0.60;;
13445;SDS011;6795;51.232;3.764;2022-09-09T12:28:26;2.33;;;0.60;;
13445;SDS011;6795;51.232;3.764;2022-09-09T12:31:05;1.02;;;0.60;;
13445;SDS011;6795;51.232;3.764;2022-09-09T12:33:41;2.72;;;0.70;;
13445;SDS011;6795;51.232;3.764;2022-09-09T12:36:12;3.40;;;0.75;;
13445;SDS011;6795;51.232;3.764;2022-09-09T12:38:43;3.92;;;0.98;;
13445;SDS011;6795;51.232;3.764;2022-09-09T12:41:18;26.52;;;3.13;;
13445;SDS011;6795;51.232;3.764;2022-09-09T12:43:48;21.00;;;2.63;;
13445;SDS011;6795;51.232;3.764;2022-09-09T12:46:27;10.05;;;0.82;;
13445;SDS011;6795;51.232;3.764;2022-09-09T12:49:04;6.53;;;0.70;;
13445;SDS011;6795;51.232;3.764;2022-09-09T12:51:32;0.73;;;0.20;;
13445;SDS011;6795;51.232;3.764;2022-09-09T12:54:01;3.13;;;0.80;;
13445;SDS011;6795;51.232;3.764;2022-09-09T12:56:31;0.75;;;0.50;;
13445;SDS011;6795;51.232;3.764;2022-09-09T12:59:00;3.42;;;0.50;;
13445;SDS011;6795;51.232;3.764;2022-09-09T13:01:30;1.38;;;0.80;;
13445;SDS011;6795;51.232;3.764;2022-09-09T13:04:00;3.92;;;1.27;;
13445;SDS011;6795;51.232;3.764;2022-09-09T13:06:30;5.38;;;1.48;;
13445;SDS011;6795;51.232;3.764;2022-09-09T13:09:01;17.15;;;2.67;;
13445;SDS011;6795;51.232;3.764;2022-09-09T13:11:31;6.30;;;2.35;;
13445;SDS011;6795;51.232;3.764;2022-09-09T13:14:05;8.90;;;2.53;;
13445;SDS011;6795;51.232;3.764;2022-09-09T13:16:34;4.78;;;2.50;;
13445;SDS011;6795;51.232;3.764;2022-09-09T13:19:08;5.22;;;2.45;;
13445;SDS011;6795;51.232;3.764;2022-09-09T13:21:43;4.03;;;2.42;;
13445;SDS011;6795;51.232;3.764;2022-09-09T13:24:22;6.18;;;2.88;;
13445;SDS011;6795;51.232;3.764;2022-09-09T13:26:55;5.85;;;2.85;;
13445;SDS011;6795;51.232;3.764;2022-09-09T13:29:24;3.38;;;2.72;;
13445;SDS011;6795;51.232;3.764;2022-09-09T13:31:52;8.00;;;3.15;;
13445;SDS011;6795;51.232;3.764;2022-09-09T13:34:28;3.65;;;3.35;;
13445;SDS011;6795;51.232;3.764;2022-09-09T13:37:00;4.20;;;2.95;;
13445;SDS011;6795;51.232;3.764;2022-09-09T13:39:32;4.85;;;2.45;;
13445;SDS011;6795;51.232;3.764;2022-09-09T13:42:03;9.65;;;2.28;;
13445;SDS011;6795;51.232;3.764;2022-09-09T13:44:34;6.22;;;2.20;;
13445;SDS011;6795;51.232;3.764;2022-09-09T13:47:06;8.80;;;3.05;;
13445;SDS011;6795;51.232;3.764;2022-09-09T13:49:46;5.05;;;2.22;;
13445;SDS011;6795;51.232;3.764;2022-09-09T13:52:16;3.42;;;1.45;;
13445;SDS011;6795;51.232;3.764;2022-09-09T13:54:47;6.82;;;2.30;;
13445;SDS011;6795;51.232;3.764;2022-09-09T13:57:18;3.75;;;1.50;;
13445;SDS011;6795;51.232;3.764;2022-09-09T13:59:47;3.75;;;2.22;;
13445;SDS011;6795;51.232;3.764;2022-09-09T14:02:32;6.53;;;2.67;;
13445;SDS011;6795;51.232;3.764;2022-09-09T14:05:01;5.35;;;2.47;;
13445;SDS011;6795;51.232;3.764;2022-09-09T14:07:31;3.47;;;3.17;;
13445;SDS011;6795;51.232;3.764;2022-09-09T14:09:59;6.05;;;3.20;;
13445;SDS011;6795;51.232;3.764;2022-09-09T14:12:27;4.57;;;3.42;;
13445;SDS011;6795;51.232;3.764;2022-09-09T14:14:56;5.70;;;3.50;;
13445;SDS011;6795;51.232;3.764;2022-09-09T14:17:26;7.22;;;4.65;;
13445;SDS011;6795;51.232;3.764;2022-09-09T14:19:57;3.67;;;2.60;;
13445;SDS011;6795;51.232;3.764;2022-09-09T14:22:26;4.95;;;2.58;;
13445;SDS011;6795;51.232;3.764;2022-09-09T14:24:56;4.88;;;2.67;;
13445;SDS011;6795;51.232;3.764;2022-09-09T14:27:25;4.65;;;1.73;;
13445;SDS011;6795;51.232;3.764;2022-09-09T14:29:53;2.83;;;1.55;;
13445;SDS011;6795;51.232;3.764;2022-09-09T14:32:22;2.03;;;0.82;;
13445;SDS011;6795;51.232;3.764;2022-09-09T14:34:50;21.90;;;1.65;;
13445;SDS011;6795;51.232;3.764;2022-09-09T14:37:18;6.40;;;1.73;;
13445;SDS011;6795;51.232;3.764;2022-09-09T14:39:47;3.78;;;2.20;;
13445;SDS011;6795;51.232;3.764;2022-09-09T14:42:18;3.65;;;2.17;;
13445;SDS011;6795;51.232;3.764;2022-09-09T14:44:46;3.67;;;2.88;;
13445;SDS011;6795;51.232;3.764;2022-09-09T14:47:15;2.70;;;2.50;;
13445;SDS011;6795;51.232;3.764;2022-09-09T14:49:43;8.02;;;2.60;;
13445;SDS011;6795;51.232;3.764;2022-09-09T14:52:12;2.97;;;2.75;;
13445;SDS011;6795;51.232;3.764;2022-09-09T14:54:41;4.50;;;2.20;;
13445;SDS011;6795;51.232;3.764;2022-09-09T14:57:09;3.83;;;2.17;;
13445;SDS011;6795;51.232;3.764;2022-09-09T14:59:39;4.47;;;2.75;;
13445;SDS011;6795;51.232;3.764;2022-09-09T15:02:07;18.13;;;2.47;;
13445;SDS011;6795;51.232;3.764;2022-09-09T15:04:36;4.97;;;1.98;;
13445;SDS011;6795;51.232;3.764;2022-09-09T15:07:05;1.75;;;1.20;;
13445;SDS011;6795;51.232;3.764;2022-09-09T15:09:33;2.05;;;1.50;;
13445;SDS011;6795;51.232;3.764;2022-09-09T15:12:03;2.60;;;1.13;;
13445;SDS011;6795;51.232;3.764;2022-09-09T15:14:32;1.90;;;1.05;;
13445;SDS011;6795;51.232;3.764;2022-09-09T15:17:03;3.10;;;0.60;;
13445;SDS011;6795;51.232;3.764;2022-09-09T15:19:32;2.80;;;0.88;;
13445;SDS011;6795;51.232;3.764;2022-09-09T15:22:00;3.38;;;0.50;;
13445;SDS011;6795;51.232;3.764;2022-09-09T15:24:28;2.40;;;0.80;;
13445;SDS011;6795;51.232;3.764;2022-09-09T15:26:57;1.40;;;1.05;;
13445;SDS011;6795;51.232;3.764;2022-09-09T15:29:26;3.75;;;1.00;;
13445;SDS011;6795;51.232;3.764;2022-09-09T15:31:55;3.70;;;0.70;;
13445;SDS011;6795;51.232;3.764;2022-09-09T15:34:24;2.42;;;1.02;;
13445;SDS011;6795;51.232;3.764;2022-09-09T15:36:52;2.70;;;1.48;;